createdAt,value
2023-10-23T00:03:05.081Z,101072.34
2023-10-23T00:05:45.679Z,101073.59
2023-10-23T00:08:12.868Z,101073.34
2023-10-23T00:10:39.903Z,101071.78
2023-10-23T00:13:07.024Z,101074.13
2023-10-23T00:15:33.998Z,101073.13
2023-10-23T00:18:01.327Z,101077.41
2023-10-23T00:20:28.388Z,101079.41
2023-10-23T00:22:55.521Z,101075.56
2023-10-23T00:25:43.073Z,101066.91
2023-10-23T00:28:23.613Z,101078.09
2023-10-23T00:30:50.699Z,101073.53
2023-10-23T00:33:17.850Z,101084.25
2023-10-23T00:35:44.963Z,101079.38
2023-10-23T00:38:11.942Z,101087.03
2023-10-23T00:40:39.593Z,101093.13
2023-10-23T00:43:24.676Z,101092.72
2023-10-23T00:45:54.882Z,101101.09
2023-10-23T00:48:24.183Z,101090.97
2023-10-23T00:50:52.577Z,101092.00
2023-10-23T00:53:21.552Z,101098.38
2023-10-23T00:55:48.870Z,101087.69
2023-10-23T00:58:16.447Z,101097.09
2023-10-23T01:01:04.165Z,101089.75
2023-10-23T01:03:44.878Z,101075.22
2023-10-23T01:06:14.361Z,101071.94
2023-10-23T01:08:42.989Z,101062.78
2023-10-23T01:11:30.136Z,101056.69
2023-10-23T01:14:31.098Z,101053.16
2023-10-23T01:17:32.124Z,101054.44
2023-10-23T01:20:15.579Z,101053.16
2023-10-23T01:22:42.510Z,101056.16
2023-10-23T01:25:18.737Z,101057.22
2023-10-23T01:27:45.874Z,101061.00
2023-10-23T01:30:12.873Z,101057.47
2023-10-23T01:32:39.958Z,101052.66
2023-10-23T01:35:07.212Z,101049.34
2023-10-23T01:37:34.254Z,101059.75
2023-10-23T01:40:01.278Z,101053.41
2023-10-23T01:42:48.158Z,101057.72
2023-10-23T01:45:49.245Z,101057.47
2023-10-23T01:48:29.878Z,101062.06
2023-10-23T01:50:56.926Z,101071.47
2023-10-23T01:53:24.706Z,101070.16
2023-10-23T01:55:51.693Z,101072.97
2023-10-23T01:58:18.656Z,101076.28
2023-10-23T02:01:06.246Z,101076.78
2023-10-23T02:04:07.317Z,101076.78
2023-10-23T02:07:08.117Z,101080.56
2023-10-23T02:09:48.725Z,101085.91
2023-10-23T02:12:15.787Z,101090.72
2023-10-23T02:14:42.737Z,101091.00
2023-10-23T02:17:09.902Z,101089.47
2023-10-23T02:19:37.470Z,101078.53
2023-10-23T02:22:04.657Z,101080.06
2023-10-23T02:24:31.616Z,101081.84
2023-10-23T02:26:58.673Z,101080.56
2023-10-23T02:29:25.633Z,101083.63
2023-10-23T02:31:52.867Z,101083.38
2023-10-23T02:34:19.822Z,101088.97
2023-10-23T02:36:47.473Z,101087.94
2023-10-23T02:39:16.709Z,101087.69
2023-10-23T02:41:43.972Z,101095.81
2023-10-23T02:44:12.194Z,101098.13
2023-10-23T02:46:42.373Z,101103.19
2023-10-23T02:49:43.154Z,101112.34
2023-10-23T02:52:23.835Z,101104.97
2023-10-23T02:54:52.106Z,101094.81
2023-10-23T02:57:19.275Z,101097.59
2023-10-23T02:59:59.177Z,101097.59
2023-10-23T03:03:00.218Z,101104.97
2023-10-23T03:05:40.892Z,101093.78
2023-10-23T03:08:08.575Z,101103.69
2023-10-23T03:10:35.938Z,101096.34
2023-10-23T03:13:04.197Z,101099.91
2023-10-23T03:15:31.263Z,101101.44
2023-10-23T03:17:58.667Z,101097.09
2023-10-23T03:20:25.712Z,101105.47
2023-10-23T03:22:52.700Z,101109.28
2023-10-23T03:25:19.894Z,101111.56
2023-10-23T03:27:47.453Z,101109.28
2023-10-23T03:30:14.739Z,101107.25
2023-10-23T03:32:41.732Z,101109.03
2023-10-23T03:35:29.153Z,101115.13
2023-10-23T03:38:31.033Z,101119.97
2023-10-23T03:41:11.816Z,101109.81
2023-10-23T03:43:38.802Z,101110.56
2023-10-23T03:46:06.563Z,101116.16
2023-10-23T03:48:37.296Z,101104.19
2023-10-23T03:51:05.010Z,101106.00
2023-10-23T03:53:32.121Z,101101.41
2023-10-23T03:55:59.140Z,101112.84
2023-10-23T03:58:26.608Z,101112.84
2023-10-23T04:01:14.309Z,101118.94
2023-10-23T04:04:16.425Z,101114.38
2023-10-23T04:07:17.178Z,101122.00
2023-10-23T04:09:57.815Z,101124.78
2023-10-23T04:12:24.979Z,101132.16
2023-10-23T04:14:52.019Z,101124.53
2023-10-23T04:17:19.066Z,101113.38
2023-10-23T04:19:49.309Z,101115.88
2023-10-23T04:22:16.328Z,101114.38
2023-10-23T04:25:03.264Z,101115.88
2023-10-23T04:27:44.314Z,101115.63
2023-10-23T04:30:12.287Z,101115.66
2023-10-23T04:32:39.307Z,101115.84
2023-10-23T04:35:06.562Z,101121.16
2023-10-23T04:37:33.576Z,101123.22
2023-10-23T04:40:00.562Z,101117.41
2023-10-23T04:42:27.606Z,101110.25
2023-10-23T04:44:54.818Z,101110.06
2023-10-23T04:47:21.763Z,101115.41
2023-10-23T04:49:49.319Z,101114.63
2023-10-23T04:52:18.024Z,101117.94
2023-10-23T04:54:45.275Z,101117.94
2023-10-23T04:57:12.470Z,101116.16
2023-10-23T04:59:59.284Z,101104.72
2023-10-23T05:03:00.244Z,101117.19
2023-10-23T05:05:48.348Z,101138.75
2023-10-23T05:08:18.490Z,101122.50
2023-10-23T05:11:07.273Z,101130.13
2023-10-23T05:14:08.320Z,101129.13
2023-10-23T05:17:09.270Z,101133.16
2023-10-23T05:19:49.961Z,101123.78
2023-10-23T05:22:17.140Z,101121.72
2023-10-23T05:24:47.917Z,101129.63
2023-10-23T05:27:15.932Z,101131.91
2023-10-23T05:29:43.255Z,101137.25
2023-10-23T05:32:10.865Z,101137.00
2023-10-23T05:34:37.841Z,101143.31
2023-10-23T05:37:05.181Z,101141.28
2023-10-23T05:39:32.792Z,101140.31
2023-10-23T05:42:20.301Z,101146.38
2023-10-23T05:45:21.286Z,101145.88
2023-10-23T05:47:53.988Z,101145.13
2023-10-23T05:50:20.973Z,101158.34
2023-10-23T05:52:48.452Z,101167.47
2023-10-23T05:55:15.715Z,101159.84
2023-10-23T05:57:42.809Z,101158.59
2023-10-23T06:00:30.412Z,101174.84
2023-10-23T06:03:31.526Z,101168.25
2023-10-23T06:06:06.238Z,101169.78
2023-10-23T06:08:33.377Z,101167.22
2023-10-23T06:11:00.966Z,101168.78
2023-10-23T06:13:28.418Z,101163.69
2023-10-23T06:16:04.228Z,101178.41
2023-10-23T06:18:36.223Z,101176.66
2023-10-23T06:21:23.323Z,101172.06
2023-10-23T06:24:24.327Z,101174.84
2023-10-23T06:27:25.347Z,101173.03
2023-10-23T06:30:06.685Z,101183.22
2023-10-23T06:32:36.786Z,101179.66
2023-10-23T06:35:05.624Z,101181.47
2023-10-23T06:37:34.038Z,101194.94
2023-10-23T06:40:01.019Z,101204.88
2023-10-23T06:42:28.224Z,101204.63
2023-10-23T06:44:55.706Z,101213.47
2023-10-23T06:47:22.734Z,101219.84
2023-10-23T06:49:49.801Z,101215.00
2023-10-23T06:52:16.933Z,101210.94
2023-10-23T06:54:43.872Z,101213.94
2023-10-23T06:57:11.030Z,101230.47
2023-10-23T06:59:59.380Z,101221.28
2023-10-23T07:03:03.402Z,101215.72
2023-10-23T07:05:44.616Z,101218.56
2023-10-23T07:08:11.767Z,101215.25
2023-10-23T07:10:59.555Z,101216.50
2023-10-23T07:14:00.328Z,101233.50
2023-10-23T07:17:01.364Z,101235.97
2023-10-23T07:20:03.338Z,101252.91
2023-10-23T07:23:04.340Z,101265.94
2023-10-23T07:26:20.456Z,101273.56
2023-10-23T07:29:01.085Z,101279.09
2023-10-23T07:31:30.989Z,101285.44
2023-10-23T07:33:59.113Z,101286.25
2023-10-23T07:36:26.254Z,101286.38
2023-10-23T07:38:56.498Z,101289.25
2023-10-23T07:41:43.307Z,101297.59
2023-10-23T07:44:44.384Z,101293.03
2023-10-23T07:47:24.981Z,101296.03
2023-10-23T07:49:51.970Z,101289.81
2023-10-23T07:52:39.489Z,101286.78
2023-10-23T07:55:40.285Z,101298.44
2023-10-23T07:58:41.326Z,101295.16
2023-10-23T08:01:35.388Z,101297.72
2023-10-23T08:04:36.567Z,101293.34
2023-10-23T08:07:37.347Z,101300.44
2023-10-23T08:10:38.294Z,101296.88
2023-10-23T08:13:18.940Z,101307.13
2023-10-23T08:15:46.184Z,101303.78
2023-10-23T08:18:25.926Z,101287.16
2023-10-23T08:21:00.412Z,101286.31
2023-10-23T08:23:27.475Z,101291.75
2023-10-23T08:25:54.519Z,101284.56
2023-10-23T08:28:22.356Z,101293.59
2023-10-23T08:30:49.508Z,101290.53
2023-10-23T08:33:37.457Z,101289.94
2023-10-23T08:36:38.472Z,101294.25
2023-10-23T08:39:20.917Z,101294.25
2023-10-23T08:41:50.056Z,101291.81
2023-10-23T08:44:20.349Z,101291.47
2023-10-23T08:46:47.594Z,101291.44
2023-10-23T08:49:35.361Z,101291.59
2023-10-23T08:52:21.474Z,101297.31
2023-10-23T08:54:51.499Z,101286.31
2023-10-23T08:57:21.249Z,101290.16
2023-10-23T09:00:08.431Z,101283.34
2023-10-23T09:03:09.382Z,101281.13
2023-10-23T09:06:11.559Z,101282.13
2023-10-23T09:09:13.439Z,101277.22
2023-10-23T09:12:15.371Z,101273.16
2023-10-23T09:14:56.038Z,101265.53
2023-10-23T09:19:51.476Z,101270.41
2023-10-23T09:22:18.585Z,101273.19
2023-10-23T09:24:46.817Z,101270.56
2023-10-23T09:27:13.855Z,101270.03
2023-10-23T09:29:41.363Z,101268.44
2023-10-23T09:32:08.491Z,101276.25
2023-10-23T09:34:42.288Z,101277.28
2023-10-23T09:37:29.726Z,101269.88
2023-10-23T09:40:30.369Z,101279.38
2023-10-23T09:43:33.440Z,101289.09
2023-10-23T09:46:14.202Z,101293.41
2023-10-23T09:48:45.813Z,101297.81
2023-10-23T09:51:17.545Z,101305.19
2023-10-23T09:53:49.996Z,101307.69
2023-10-23T09:56:22.058Z,101313.69
2023-10-23T09:59:14.365Z,101313.97
2023-10-23T10:02:16.578Z,101311.16
2023-10-23T10:05:21.453Z,101306.72
2023-10-23T10:08:25.391Z,101305.13
2023-10-23T10:11:20.488Z,101306.91
2023-10-23T10:14:01.262Z,101301.44
2023-10-23T10:16:28.623Z,101311.41
2023-10-23T10:18:55.838Z,101304.91
2023-10-23T10:21:25.080Z,101298.03
2023-10-23T10:24:12.759Z,101297.41
2023-10-23T10:27:15.484Z,101282.34
2023-10-23T10:29:56.137Z,101292.13
2023-10-23T10:32:26.709Z,101278.25
2023-10-23T10:35:18.501Z,101278.44
2023-10-23T10:38:00.668Z,101265.50
2023-10-23T10:40:28.017Z,101261.72
2023-10-23T10:42:56.650Z,101250.78
2023-10-23T10:45:23.607Z,101246.94
2023-10-23T10:47:54.031Z,101240.44
2023-10-23T10:50:54.422Z,101232.44
2023-10-23T10:53:55.452Z,101216.34
2023-10-23T10:56:57.498Z,101223.00
2023-10-23T10:59:58.445Z,101217.31
2023-10-23T11:02:59.568Z,101223.22
2023-10-23T11:06:08.702Z,101205.03
2023-10-23T11:08:49.055Z,101214.53
2023-10-23T11:11:17.032Z,101207.78
2023-10-23T11:14:04.444Z,101200.53
2023-10-23T11:16:45.201Z,101211.19
2023-10-23T11:19:12.784Z,101204.63
2023-10-23T11:21:39.932Z,101215.09
2023-10-23T11:24:08.082Z,101210.19
2023-10-23T11:26:35.156Z,101206.47
2023-10-23T11:29:02.561Z,101209.13
2023-10-23T11:31:29.635Z,101204.69
2023-10-23T11:34:00.289Z,101208.56
2023-10-23T11:36:34.211Z,101205.81
2023-10-23T11:39:02.834Z,101204.50
2023-10-23T11:41:29.873Z,101203.44
2023-10-23T11:44:01.651Z,101208.03
2023-10-23T11:46:29.946Z,101196.53
2023-10-23T11:48:57.203Z,101204.84
2023-10-23T11:51:24.730Z,101197.91
2023-10-23T11:53:51.861Z,101203.41
2023-10-23T11:56:18.986Z,101198.78
2023-10-23T11:59:06.513Z,101191.91
2023-10-23T12:02:08.478Z,101182.16
2023-10-23T12:05:09.482Z,101183.09
2023-10-23T12:07:57.500Z,101171.91
2023-10-23T12:10:26.814Z,101159.63
2023-10-23T12:12:55.174Z,101168.59
2023-10-23T12:15:24.687Z,101180.47
2023-10-23T12:17:52.509Z,101179.97
2023-10-23T12:20:23.162Z,101179.38
2023-10-23T12:22:51.782Z,101178.38
2023-10-23T12:25:18.993Z,101165.88
2023-10-23T12:27:47.108Z,101163.25
2023-10-23T12:30:23.628Z,101164.75
2023-10-23T12:33:15.215Z,101168.47
2023-10-23T12:35:41.361Z,101167.66
2023-10-23T12:38:08.936Z,101168.13
2023-10-23T12:40:37.550Z,101161.94
2023-10-23T12:43:05.776Z,101163.56
2023-10-23T12:45:33.274Z,101168.38
2023-10-23T12:48:20.534Z,101167.19
2023-10-23T12:51:21.532Z,101168.00
2023-10-23T12:54:22.488Z,101174.19
2023-10-23T12:57:23.495Z,101172.06
2023-10-23T13:00:24.540Z,101172.19
2023-10-23T13:03:25.553Z,101172.56
2023-10-23T13:06:08.134Z,101172.06
2023-10-23T13:08:35.183Z,101161.31
2023-10-23T13:11:22.501Z,101152.69
2023-10-23T13:14:23.599Z,101141.50
2023-10-23T13:17:24.821Z,101149.63
2023-10-23T13:21:27.913Z,101144.41
2023-10-23T13:22:58.678Z,101134.19
2023-10-23T13:25:25.992Z,101135.94
2023-10-23T13:27:53.021Z,101136.16
2023-10-23T13:30:20.056Z,101125.03
2023-10-23T13:32:47.173Z,101134.41
2023-10-23T13:35:34.530Z,101128.94
2023-10-23T13:38:35.588Z,101123.13
2023-10-23T13:41:16.039Z,101109.25
2023-10-23T13:43:43.064Z,101115.38
2023-10-23T13:46:10.341Z,101106.31
2023-10-23T13:48:37.491Z,101106.69
2023-10-23T13:51:24.536Z,101111.47
2023-10-23T13:54:25.544Z,101111.94
2023-10-23T13:57:06.557Z,101099.84
2023-10-23T13:59:54.555Z,101098.28
2023-10-23T14:03:05.636Z,101109.97
2023-10-23T14:06:06.868Z,101104.28
2023-10-23T14:09:41.296Z,101106.09
2023-10-23T14:12:28.553Z,101111.75
2023-10-23T14:15:29.575Z,101104.91
2023-10-23T14:18:11.081Z,101103.47
2023-10-23T14:20:39.472Z,101105.66
2023-10-23T14:23:06.664Z,101094.81
2023-10-23T14:26:08.725Z,101095.56
2023-10-23T14:28:49.260Z,101102.47
2023-10-23T14:31:16.459Z,101107.84
2023-10-23T14:33:43.837Z,101102.91
2023-10-23T14:36:14.658Z,101105.28
2023-10-23T14:38:43.020Z,101100.34
2023-10-23T14:41:10.184Z,101099.81
2023-10-23T14:43:37.394Z,101089.91
2023-10-23T14:46:04.463Z,101086.19
2023-10-23T14:48:52.620Z,101080.31
2023-10-23T14:51:33.329Z,101082.78
2023-10-23T14:54:20.636Z,101089.78
2023-10-23T14:57:03.893Z,101090.00
2023-10-23T14:59:50.593Z,101089.94
2023-10-23T15:02:53.661Z,101091.84
2023-10-23T15:05:54.960Z,101084.00
2023-10-23T15:09:13.693Z,101087.41
2023-10-23T15:12:15.984Z,101093.78
2023-10-23T15:15:16.637Z,101076.56
2023-10-23T15:17:57.200Z,101094.78
2023-10-23T15:20:27.886Z,101097.38
2023-10-23T15:22:54.840Z,101091.31
2023-10-23T15:25:21.979Z,101084.72
2023-10-23T15:27:50.695Z,101079.50
2023-10-23T15:30:18.006Z,101069.88
2023-10-23T15:32:45.068Z,101077.16
2023-10-23T15:35:12.155Z,101073.88
2023-10-23T15:37:39.254Z,101066.06
2023-10-23T15:40:07.397Z,101066.06
2023-10-23T15:42:34.407Z,101082.56
2023-10-23T15:45:01.580Z,101069.91
2023-10-23T15:47:48.795Z,101077.47
2023-10-23T15:50:50.557Z,101085.16
2023-10-23T15:53:51.659Z,101090.69
2023-10-23T15:56:53.788Z,101087.41
2023-10-23T15:59:54.663Z,101095.09
2023-10-23T16:02:55.777Z,101088.38
2023-10-23T16:05:36.506Z,101066.41
2023-10-23T16:08:06.057Z,101075.22
2023-10-23T16:10:33.874Z,101089.81
2023-10-23T16:13:02.499Z,101070.94
2023-10-23T16:15:29.590Z,101082.91
2023-10-23T16:18:00.479Z,101078.19
2023-10-23T16:20:27.502Z,101065.97
2023-10-23T16:22:54.710Z,101068.56
2023-10-23T16:25:21.896Z,101081.88
2023-10-23T16:28:08.676Z,101083.03
2023-10-23T16:31:10.100Z,101080.41
2023-10-23T16:33:50.516Z,101082.56
2023-10-23T16:36:18.577Z,101096.19
2023-10-23T16:38:45.610Z,101110.88
2023-10-23T16:41:12.618Z,101109.59
2023-10-23T16:43:59.724Z,101094.84
2023-10-23T16:47:01.703Z,101103.28
2023-10-23T16:50:04.649Z,101091.84
2023-10-23T16:52:46.291Z,101091.00
2023-10-23T16:55:13.309Z,101097.22
2023-10-23T16:58:00.694Z,101095.47
2023-10-23T17:01:01.847Z,101101.69
2023-10-23T17:04:02.771Z,101111.94
2023-10-23T17:07:03.699Z,101126.53
2023-10-23T17:10:03.439Z,101144.47
2023-10-23T17:12:30.576Z,101148.88
2023-10-23T17:15:17.733Z,101142.44
2023-10-23T17:18:16.732Z,101135.13
2023-10-23T17:20:45.752Z,101140.81
2023-10-23T17:23:12.915Z,101157.00
2023-10-23T17:25:41.607Z,101152.19
2023-10-23T17:28:11.596Z,101147.03
2023-10-23T17:30:58.739Z,101134.56
2023-10-23T17:33:59.714Z,101130.78
2023-10-23T17:37:01.850Z,101120.97
2023-10-23T17:39:42.516Z,101138.50
2023-10-23T17:42:09.849Z,101145.75
2023-10-23T17:44:36.946Z,101152.22
2023-10-23T17:47:05.009Z,101133.38
2023-10-23T17:49:32.294Z,101130.16
2023-10-23T17:51:59.521Z,101125.22
2023-10-23T17:54:26.624Z,101128.09
2023-10-23T17:56:54.157Z,101125.94
2023-10-23T17:59:41.866Z,101118.34
2023-10-23T18:02:43.010Z,101123.44
2023-10-23T18:05:43.841Z,101120.72
2023-10-23T18:08:24.425Z,101111.56
2023-10-23T18:10:51.405Z,101124.59
2023-10-23T18:13:18.908Z,101123.56
2023-10-23T18:15:45.968Z,101122.84
2023-10-23T18:18:13.309Z,101135.34
2023-10-23T18:20:40.508Z,101130.50
2023-10-23T18:23:07.528Z,101124.59
2023-10-23T18:25:34.555Z,101122.28
2023-10-23T18:28:01.658Z,101116.91
2023-10-23T18:30:48.741Z,101118.19
2023-10-23T18:33:49.760Z,101100.13
2023-10-23T18:36:50.813Z,101085.66
2023-10-23T18:39:31.383Z,101097.09
2023-10-23T18:41:58.865Z,101103.03
2023-10-23T18:44:28.778Z,101102.03
2023-10-23T18:46:55.854Z,101102.28
2023-10-23T18:49:22.959Z,101082.69
2023-10-23T18:51:50.350Z,101092.84
2023-10-23T18:54:19.469Z,101079.59
2023-10-23T18:56:47.054Z,101097.41
2023-10-23T18:59:34.357Z,101100.22
2023-10-23T19:02:37.253Z,101100.47
2023-10-23T19:05:42.790Z,101091.03
2023-10-23T19:08:26.443Z,101093.06
2023-10-23T19:10:53.875Z,101125.91
2023-10-23T19:13:21.766Z,101118.75
2023-10-23T19:16:01.149Z,101103.66
2023-10-23T19:18:34.579Z,101111.47
2023-10-23T19:21:15.894Z,101110.78
2023-10-23T19:23:43.942Z,101100.91
2023-10-23T19:26:12.631Z,101088.47
2023-10-23T19:29:00.163Z,101083.91
2023-10-23T19:32:00.817Z,101082.66
2023-10-23T19:34:41.576Z,101077.06
2023-10-23T19:37:09.868Z,101082.13
2023-10-23T19:39:38.763Z,101094.38
2023-10-23T19:42:08.687Z,101086.22
2023-10-23T19:44:38.533Z,101083.19
2023-10-23T19:47:08.299Z,101085.47
2023-10-23T19:49:35.693Z,101088.72
2023-10-23T19:52:03.318Z,101093.06
2023-10-23T19:54:37.411Z,101094.84
2023-10-23T19:57:07.012Z,101095.06
2023-10-23T19:59:53.892Z,101100.69
2023-10-23T20:02:54.887Z,101095.56
2023-10-23T20:05:58.931Z,101111.38
2023-10-23T20:08:40.612Z,101110.63
2023-10-23T20:11:07.692Z,101122.78
2023-10-23T20:13:34.764Z,101122.47
2023-10-23T20:16:04.343Z,101098.75
2023-10-23T20:18:32.408Z,101100.56
2023-10-23T20:20:59.659Z,101092.84
2023-10-23T20:23:26.960Z,101079.56
2023-10-23T20:26:13.850Z,101093.06
2023-10-23T20:29:15.962Z,101096.19
2023-10-23T20:32:16.934Z,101091.84
2023-10-23T20:34:57.469Z,101080.31
2023-10-23T20:37:24.508Z,101075.28
2023-10-23T20:39:51.579Z,101054.63
2023-10-23T20:42:18.854Z,101056.75
2023-10-23T20:45:12.864Z,101078.22
2023-10-23T20:47:53.704Z,101076.94
2023-10-23T20:50:24.280Z,101080.78
2023-10-23T20:52:51.572Z,101093.00
2023-10-23T20:55:18.553Z,101103.41
2023-10-23T20:57:45.619Z,101097.25
2023-10-23T21:00:32.884Z,101100.78
2023-10-23T21:03:33.856Z,101097.50
2023-10-23T21:06:34.816Z,101104.41
2023-10-23T21:09:15.814Z,101093.69
2023-10-23T21:11:42.859Z,101087.59
2023-10-23T21:14:10.788Z,101099.28
2023-10-23T21:16:38.212Z,101102.06
2023-10-23T21:19:05.920Z,101084.25
2023-10-23T21:21:33.042Z,101065.16
2023-10-23T21:24:00.136Z,101057.69
2023-10-23T21:26:27.446Z,101056.41
2023-10-23T21:28:54.433Z,101052.38
2023-10-23T21:31:21.537Z,101055.22
2023-10-23T21:33:48.680Z,101058.53
2023-10-23T21:36:15.660Z,101056.22
2023-10-23T21:38:42.660Z,101061.31
2023-10-23T21:41:09.834Z,101042.75
2023-10-23T21:43:56.840Z,101053.38
2023-10-23T21:46:44.646Z,101060.56
2023-10-23T21:49:11.790Z,101057.75
2023-10-23T21:51:39.382Z,101037.38
2023-10-23T21:54:07.858Z,101035.00
2023-10-23T21:57:19.275Z,101046.47
2023-10-23T21:59:43.848Z,101063.28
2023-10-23T22:02:44.952Z,101078.59
2023-10-23T22:05:45.843Z,101084.31
2023-10-23T22:08:26.858Z,101086.84
2023-10-23T22:10:54.048Z,101086.34
2023-10-23T22:13:40.905Z,101085.09
2023-10-23T22:16:22.643Z,101084.84
2023-10-23T22:18:51.506Z,101084.56
2023-10-23T22:21:18.585Z,101076.41
2023-10-23T22:23:45.524Z,101083.09
2023-10-23T22:26:32.876Z,101073.34
2023-10-23T22:29:13.420Z,101077.50
2023-10-23T22:31:40.422Z,101071.91
2023-10-23T22:34:07.460Z,101058.66
2023-10-23T22:36:34.526Z,101063.06
2023-10-23T22:39:01.547Z,101035.28
2023-10-23T22:41:28.640Z,101019.44
2023-10-23T22:43:55.788Z,101042.31
2023-10-23T22:46:22.853Z,101069.88
2023-10-23T22:48:49.867Z,101057.38
2023-10-23T22:51:17.693Z,101059.16
2023-10-23T22:53:44.806Z,101043.69
2023-10-23T22:56:14.495Z,101041.69
2023-10-23T22:58:42.191Z,101055.97
2023-10-23T23:01:28.993Z,101058.00
2023-10-23T23:04:29.898Z,101055.94
2023-10-23T23:07:31.965Z,101046.34
2023-10-23T23:10:13.800Z,101050.06
2023-10-23T23:13:00.901Z,101041.34
2023-10-23T23:15:46.743Z,101042.63
2023-10-23T23:18:19.064Z,101063.72
2023-10-23T23:20:48.536Z,101072.31
2023-10-23T23:23:15.503Z,101054.50
2023-10-23T23:25:42.515Z,101050.41
2023-10-23T23:28:09.545Z,101056.47
2023-10-23T23:30:36.540Z,101069.41
2023-10-23T23:33:03.756Z,101046.72
2023-10-23T23:35:30.700Z,101053.44
2023-10-23T23:37:57.751Z,101055.66
2023-10-23T23:40:24.743Z,101051.84
2023-10-23T23:43:11.987Z,101041.84
2023-10-23T23:46:13.014Z,101039.84
2023-10-23T23:48:53.553Z,101039.66
2023-10-23T23:51:40.921Z,101044.59
2023-10-23T23:54:42.281Z,101035.13
2023-10-23T23:57:22.562Z,101034.84
